createdAt,value
2017-10-18T00:01:58.190Z,40.80
2017-10-18T00:04:27.166Z,46.43
2017-10-18T00:06:54.675Z,36.93
2017-10-18T00:09:22.919Z,34.00
2017-10-18T00:11:50.419Z,45.70
2017-10-18T00:14:17.899Z,52.10
2017-10-18T00:16:45.379Z,63.83
2017-10-18T00:19:12.861Z,88.77
2017-10-18T00:21:40.321Z,41.57
2017-10-18T00:24:08.572Z,41.83
2017-10-18T00:26:36.038Z,38.13
2017-10-18T00:29:03.502Z,32.57
2017-10-18T00:31:30.976Z,43.37
2017-10-18T00:33:59.207Z,44.80
2017-10-18T00:36:26.695Z,31.17
2017-10-18T00:38:54.923Z,33.37
2017-10-18T00:41:22.399Z,95.80
2017-10-18T00:43:49.867Z,57.67
2017-10-18T00:46:17.329Z,59.73
2017-10-18T00:48:44.824Z,27.73
2017-10-18T00:51:12.284Z,48.33
2017-10-18T00:53:39.772Z,53.87
2017-10-18T00:56:07.240Z,42.00
2017-10-18T00:58:34.724Z,70.63
2017-10-18T01:01:02.955Z,70.97
2017-10-18T01:03:30.462Z,80.27
2017-10-18T01:05:58.695Z,92.03
2017-10-18T01:08:26.167Z,115.10
2017-10-18T01:10:54.415Z,87.63
2017-10-18T01:13:21.904Z,74.00
2017-10-18T01:15:49.387Z,38.07
2017-10-18T01:18:17.616Z,31.37
2017-10-18T01:20:45.103Z,72.03
2017-10-18T01:23:12.559Z,96.40
2017-10-18T01:25:40.809Z,104.50
2017-10-18T01:28:08.267Z,142.93
2017-10-18T01:30:35.762Z,132.33
2017-10-18T01:33:04.004Z,132.93
2017-10-18T01:35:31.475Z,161.60
2017-10-18T01:37:59.723Z,116.43
2017-10-18T01:40:27.212Z,99.97
2017-10-18T01:42:55.435Z,71.90
2017-10-18T01:45:23.235Z,67.50
2017-10-18T01:47:50.711Z,60.00
2017-10-18T01:50:18.952Z,52.57
2017-10-18T01:52:46.430Z,55.43
2017-10-18T01:55:13.895Z,55.53
2017-10-18T01:57:42.143Z,46.40
2017-10-18T02:00:09.636Z,37.33
2017-10-18T02:02:37.881Z,54.13
2017-10-18T02:05:05.347Z,52.83
2017-10-18T02:07:32.819Z,54.67
2017-10-18T02:10:01.080Z,302.33
2017-10-18T02:12:29.311Z,104.63
2017-10-18T02:14:56.797Z,129.93
2017-10-18T02:17:24.279Z,472.73
2017-10-18T02:19:52.520Z,380.07
2017-10-18T02:22:20.007Z,186.17
2017-10-18T02:24:48.247Z,99.47
2017-10-18T02:27:15.720Z,84.00
2017-10-18T02:29:43.202Z,104.70
2017-10-18T02:32:11.443Z,118.37
2017-10-18T02:34:38.928Z,118.40
2017-10-18T02:37:07.154Z,93.17
2017-10-18T02:39:34.627Z,103.93
2017-10-18T02:42:02.110Z,51.60
2017-10-18T02:44:30.339Z,61.60
2017-10-18T02:46:57.824Z,58.87
2017-10-18T02:49:25.303Z,66.57
2017-10-18T02:51:53.535Z,72.90
2017-10-18T02:54:21.012Z,60.57
2017-10-18T02:56:48.501Z,145.33
2017-10-18T02:59:16.747Z,49.87
2017-10-18T03:01:44.227Z,56.70
2017-10-18T03:04:12.469Z,47.10
2017-10-18T03:06:39.948Z,57.97
2017-10-18T03:09:07.414Z,139.60
2017-10-18T03:11:35.671Z,102.40
2017-10-18T03:14:03.131Z,43.17
2017-10-18T03:16:31.374Z,56.37
2017-10-18T03:18:58.839Z,38.13
2017-10-18T03:21:26.317Z,39.33
2017-10-18T03:23:53.792Z,41.30
2017-10-18T03:26:22.016Z,53.73
2017-10-18T03:28:49.479Z,56.37
2017-10-18T03:31:16.964Z,58.37
2017-10-18T03:33:44.434Z,57.13
2017-10-18T03:36:12.689Z,59.43
2017-10-18T03:38:40.154Z,55.97
2017-10-18T03:41:07.619Z,65.00
2017-10-18T03:43:35.870Z,57.27
2017-10-18T03:46:03.332Z,41.37
2017-10-18T03:48:30.827Z,26.03
2017-10-18T03:50:58.290Z,79.50
2017-10-18T03:53:25.768Z,85.13
2017-10-18T03:55:53.235Z,50.17
2017-10-18T03:58:20.724Z,62.93
2017-10-18T04:00:48.197Z,73.03
2017-10-18T04:03:16.448Z,58.40
2017-10-18T04:05:43.923Z,220.13
2017-10-18T04:08:12.156Z,86.73
2017-10-18T04:10:39.631Z,62.27
2017-10-18T04:13:07.107Z,53.47
2017-10-18T04:15:34.571Z,44.30
2017-10-18T04:18:02.811Z,51.30
2017-10-18T04:20:30.279Z,59.90
2017-10-18T04:22:57.760Z,67.33
2017-10-18T04:25:25.996Z,63.10
2017-10-18T04:27:53.467Z,66.30
2017-10-18T04:30:22.443Z,47.90
2017-10-18T04:32:49.923Z,59.63
2017-10-18T04:35:17.389Z,60.57
2017-10-18T04:37:45.620Z,67.53
2017-10-18T04:40:13.091Z,69.73
2017-10-18T04:42:40.560Z,61.50
2017-10-18T04:45:08.036Z,69.40
2017-10-18T04:47:36.271Z,82.63
2017-10-18T04:50:03.752Z,68.20
2017-10-18T04:52:32.711Z,77.77
2017-10-18T04:55:00.195Z,72.17
2017-10-18T04:57:27.666Z,71.77
2017-10-18T04:59:55.892Z,64.27
2017-10-18T05:02:23.371Z,77.33
2017-10-18T05:04:50.830Z,85.03
2017-10-18T05:07:18.310Z,69.37
2017-10-18T05:09:46.553Z,66.33
2017-10-18T05:12:14.242Z,59.73
2017-10-18T05:14:41.714Z,62.43
2017-10-18T05:17:09.951Z,82.30
2017-10-18T05:19:37.420Z,68.53
2017-10-18T05:22:04.899Z,79.60
2017-10-18T05:24:33.123Z,62.83
2017-10-18T05:27:00.587Z,47.20
2017-10-18T05:29:28.061Z,70.70
2017-10-18T05:31:55.523Z,172.33
2017-10-18T05:34:24.507Z,326.00
2017-10-18T05:36:52.258Z,107.60
2017-10-18T05:39:20.554Z,212.07
2017-10-18T05:41:48.022Z,319.13
2017-10-18T05:44:15.502Z,477.87
2017-10-18T05:46:42.971Z,430.33
2017-10-18T05:49:10.435Z,132.10
2017-10-18T05:51:37.924Z,150.83
2017-10-18T05:54:06.331Z,125.27
2017-10-18T05:56:34.572Z,109.33
2017-10-18T05:59:02.063Z,248.07
2017-10-18T06:01:29.526Z,117.67
2017-10-18T06:03:57.782Z,127.43
2017-10-18T06:06:25.248Z,146.07
2017-10-18T06:08:53.749Z,95.90
2017-10-18T06:11:21.221Z,238.60
2017-10-18T06:13:48.680Z,71.07
2017-10-18T06:16:16.144Z,112.30
2017-10-18T06:18:43.617Z,53.00
2017-10-18T06:21:11.082Z,48.80
2017-10-18T06:23:38.558Z,68.93
2017-10-18T06:26:06.019Z,78.93
2017-10-18T06:28:33.510Z,131.27
2017-10-18T06:31:00.987Z,93.63
2017-10-18T06:33:28.467Z,67.13
2017-10-18T06:35:55.934Z,64.23
2017-10-18T06:38:23.524Z,58.30
2017-10-18T06:40:51.022Z,49.00
2017-10-18T06:43:18.488Z,49.90
2017-10-18T06:45:45.984Z,46.67
2017-10-18T06:48:13.462Z,42.83
2017-10-18T06:50:41.690Z,85.50
2017-10-18T06:53:09.151Z,48.13
2017-10-18T06:55:36.614Z,71.80
2017-10-18T06:58:04.087Z,68.37
2017-10-18T07:00:32.314Z,87.00
2017-10-18T07:02:59.780Z,123.20
2017-10-18T07:05:27.255Z,72.90
2017-10-18T07:07:54.729Z,158.83
2017-10-18T07:10:22.980Z,153.73
2017-10-18T07:12:50.443Z,122.57
2017-10-18T07:15:17.934Z,78.87
2017-10-18T07:17:46.158Z,87.17
2017-10-18T07:20:13.626Z,85.70
2017-10-18T07:22:41.103Z,61.97
2017-10-18T07:25:09.334Z,32.40
2017-10-18T07:27:36.791Z,32.53
2017-10-18T07:30:04.268Z,48.37
2017-10-18T07:32:31.751Z,37.60
2017-10-18T07:34:59.988Z,44.07
2017-10-18T07:37:27.447Z,40.13
2017-10-18T07:39:54.938Z,38.70
2017-10-18T07:42:23.159Z,38.93
2017-10-18T07:44:50.630Z,42.50
2017-10-18T07:47:18.119Z,41.03
2017-10-18T07:49:45.584Z,35.53
2017-10-18T07:52:13.824Z,38.80
2017-10-18T07:54:41.289Z,46.47
2017-10-18T07:57:09.547Z,34.43
2017-10-18T07:59:37.010Z,41.97
2017-10-18T08:02:04.483Z,35.17
2017-10-18T08:04:31.964Z,32.47
2017-10-18T08:07:00.194Z,40.97
2017-10-18T08:09:27.651Z,37.17
2017-10-18T08:11:55.134Z,36.70
2017-10-18T08:14:22.615Z,37.03
2017-10-18T08:16:50.077Z,33.00
2017-10-18T08:19:17.558Z,33.83
2017-10-18T08:21:45.036Z,29.73
2017-10-18T08:24:12.499Z,27.53
2017-10-18T08:26:39.963Z,29.63
2017-10-18T08:29:07.440Z,28.37
2017-10-18T08:31:35.676Z,31.83
2017-10-18T08:34:03.157Z,39.27
2017-10-18T08:36:30.632Z,36.40
2017-10-18T08:38:58.867Z,34.63
2017-10-18T08:41:26.367Z,46.03
2017-10-18T08:43:54.611Z,35.53
2017-10-18T08:46:22.074Z,36.33
2017-10-18T08:48:49.539Z,33.97
2017-10-18T08:51:17.782Z,34.03
2017-10-18T08:53:45.258Z,34.67
2017-10-18T08:56:12.744Z,36.93
2017-10-18T08:58:40.979Z,35.30
2017-10-18T09:01:08.460Z,34.27
2017-10-18T09:03:36.711Z,31.53
2017-10-18T09:06:04.180Z,29.60
2017-10-18T09:08:31.643Z,35.10
2017-10-18T09:10:59.123Z,29.90
2017-10-18T09:13:27.379Z,32.37
2017-10-18T09:15:55.616Z,33.40
2017-10-18T09:18:23.102Z,35.27
2017-10-18T09:20:50.570Z,34.77
2017-10-18T09:23:18.795Z,32.43
2017-10-18T09:25:46.287Z,29.33
2017-10-18T09:28:14.516Z,28.70
2017-10-18T09:30:41.998Z,29.90
2017-10-18T09:33:09.468Z,29.40
2017-10-18T09:35:37.783Z,33.00
2017-10-18T09:38:05.263Z,33.53
2017-10-18T09:40:32.723Z,28.57
2017-10-18T09:43:00.204Z,24.53
2017-10-18T09:45:27.686Z,27.90
2017-10-18T09:47:55.134Z,24.23
2017-10-18T09:50:22.610Z,21.57
2017-10-18T09:52:50.852Z,24.63
2017-10-18T09:55:18.323Z,24.90
2017-10-18T09:57:45.783Z,22.70
2017-10-18T10:00:14.036Z,21.93
2017-10-18T10:02:41.499Z,22.73
2017-10-18T10:05:09.731Z,24.70
2017-10-18T10:07:37.211Z,23.83
2017-10-18T10:10:04.672Z,22.17
2017-10-18T10:12:32.147Z,20.33
2017-10-18T10:15:00.396Z,22.40
2017-10-18T10:17:27.879Z,20.60
2017-10-18T10:19:55.338Z,22.13
2017-10-18T10:22:22.814Z,23.57
2017-10-18T10:24:50.287Z,23.13
2017-10-18T10:27:17.770Z,23.83
2017-10-18T10:29:45.255Z,22.10
2017-10-18T10:32:12.724Z,22.80
2017-10-18T10:34:40.235Z,21.83
2017-10-18T10:37:07.687Z,22.00
2017-10-18T10:39:35.155Z,27.07
2017-10-18T10:42:02.634Z,21.20
2017-10-18T10:44:30.095Z,21.50
2017-10-18T10:46:57.581Z,23.43
2017-10-18T10:49:25.811Z,22.27
2017-10-18T10:51:53.284Z,26.27
2017-10-18T10:54:20.768Z,32.50
2017-10-18T10:56:49.007Z,23.53
2017-10-18T10:59:16.482Z,19.50
2017-10-18T11:01:43.973Z,26.00
2017-10-18T11:04:12.192Z,24.00
2017-10-18T11:06:39.673Z,24.50
2017-10-18T11:09:07.151Z,19.57
2017-10-18T11:11:35.400Z,22.03
2017-10-18T11:14:02.870Z,20.57
2017-10-18T11:16:30.351Z,21.60
2017-10-18T11:18:58.590Z,18.53
2017-10-18T11:21:27.579Z,22.73
2017-10-18T11:23:55.054Z,21.17
2017-10-18T11:26:23.280Z,20.70
2017-10-18T11:28:50.762Z,20.57
2017-10-18T11:31:18.218Z,24.63
2017-10-18T11:33:45.692Z,22.40
2017-10-18T11:36:13.183Z,22.20
2017-10-18T11:38:40.651Z,23.80
2017-10-18T11:41:08.127Z,25.10
2017-10-18T11:43:35.613Z,23.70
2017-10-18T11:46:04.599Z,22.30
2017-10-18T11:48:32.063Z,24.97
2017-10-18T11:50:59.559Z,25.07
2017-10-18T11:53:27.019Z,23.80
2017-10-18T11:55:54.484Z,25.97
2017-10-18T11:58:21.968Z,22.63
2017-10-18T12:00:49.426Z,20.17
2017-10-18T12:03:16.919Z,28.97
2017-10-18T12:05:45.238Z,25.70
2017-10-18T12:08:12.703Z,27.23
2017-10-18T12:10:40.193Z,22.30
2017-10-18T12:13:07.656Z,26.80
2017-10-18T12:15:35.115Z,22.87
2017-10-18T12:18:03.368Z,26.33
2017-10-18T12:20:30.832Z,25.67
2017-10-18T12:22:58.312Z,23.33
2017-10-18T12:25:26.550Z,21.73
2017-10-18T12:27:54.035Z,22.50
2017-10-18T12:30:22.265Z,21.30
2017-10-18T12:32:49.727Z,27.57
2017-10-18T12:35:17.202Z,28.90
2017-10-18T12:37:44.678Z,19.63
2017-10-18T12:40:12.935Z,26.33
2017-10-18T12:42:40.404Z,24.13
2017-10-18T12:45:07.881Z,22.03
2017-10-18T12:47:36.132Z,20.10
2017-10-18T12:50:04.360Z,18.30
2017-10-18T12:52:31.847Z,20.40
2017-10-18T12:54:59.313Z,25.73
2017-10-18T12:57:26.794Z,17.00
2017-10-18T12:59:55.027Z,21.80
2017-10-18T13:02:22.500Z,20.00
2017-10-18T13:04:49.980Z,22.43
2017-10-18T13:07:18.215Z,25.27
2017-10-18T13:09:45.699Z,16.33
2017-10-18T13:12:13.167Z,22.37
2017-10-18T13:14:41.411Z,18.43
2017-10-18T13:17:08.890Z,23.90
2017-10-18T13:19:37.129Z,20.03
2017-10-18T13:22:04.600Z,17.43
2017-10-18T13:24:32.078Z,20.87
2017-10-18T13:27:00.320Z,15.20
2017-10-18T13:29:27.807Z,16.80
2017-10-18T13:31:56.032Z,18.40
2017-10-18T13:34:23.512Z,19.57
2017-10-18T13:36:50.975Z,16.43
2017-10-18T13:39:18.467Z,15.13
2017-10-18T13:41:46.701Z,16.60
2017-10-18T13:44:14.183Z,18.50
2017-10-18T13:46:41.659Z,14.63
2017-10-18T13:49:09.892Z,12.40
2017-10-18T13:51:37.359Z,16.33
2017-10-18T13:54:04.934Z,15.73
2017-10-18T13:56:33.915Z,18.87
2017-10-18T13:59:01.389Z,17.20
2017-10-18T14:01:29.632Z,18.10
2017-10-18T14:03:57.117Z,22.87
2017-10-18T14:06:25.346Z,17.40
2017-10-18T14:08:52.834Z,13.90
2017-10-18T14:11:21.063Z,13.77
2017-10-18T14:13:48.525Z,16.60
2017-10-18T14:16:16.014Z,18.47
2017-10-18T14:18:43.480Z,26.90
2017-10-18T14:21:10.951Z,18.10
2017-10-18T14:23:39.175Z,23.67
2017-10-18T14:26:06.675Z,27.10
2017-10-18T14:28:34.127Z,14.93
2017-10-18T14:31:01.602Z,16.57
2017-10-18T14:33:29.847Z,19.07
2017-10-18T14:35:57.303Z,17.23
2017-10-18T14:38:24.785Z,15.50
2017-10-18T14:40:53.012Z,18.30
2017-10-18T14:43:20.475Z,16.33
2017-10-18T14:45:47.961Z,17.00
2017-10-18T14:48:15.423Z,15.70
2017-10-18T14:50:43.669Z,18.00
2017-10-18T14:53:11.131Z,15.27
2017-10-18T14:55:38.592Z,18.87
2017-10-18T14:58:06.063Z,18.33
2017-10-18T15:00:34.291Z,16.37
2017-10-18T15:03:01.772Z,14.80
2017-10-18T15:05:29.232Z,14.60
2017-10-18T15:07:56.723Z,20.40
2017-10-18T15:10:24.951Z,12.87
2017-10-18T15:12:52.420Z,15.30
2017-10-18T15:15:19.894Z,17.17
2017-10-18T15:17:48.144Z,13.47
2017-10-18T15:20:15.621Z,10.90
2017-10-18T15:22:43.080Z,14.20
2017-10-18T15:25:10.560Z,15.03
2017-10-18T15:27:38.023Z,17.67
2017-10-18T15:30:05.518Z,15.33
2017-10-18T15:32:32.978Z,20.93
2017-10-18T15:35:00.471Z,15.10
2017-10-18T15:37:28.711Z,15.33
2017-10-18T15:39:56.175Z,14.93
2017-10-18T15:42:23.700Z,14.83
2017-10-18T15:44:51.164Z,17.23
2017-10-18T15:47:18.653Z,18.43
2017-10-18T15:49:46.116Z,23.13
2017-10-18T15:52:13.599Z,19.90
2017-10-18T15:54:41.830Z,26.77
2017-10-18T15:57:09.305Z,21.17
2017-10-18T15:59:36.775Z,26.30
2017-10-18T16:02:05.003Z,21.70
2017-10-18T16:04:32.487Z,23.60
2017-10-18T16:06:59.967Z,22.47
2017-10-18T16:09:28.191Z,22.80
2017-10-18T16:11:55.697Z,25.00
2017-10-18T16:14:23.945Z,20.03
2017-10-18T16:16:51.416Z,24.87
2017-10-18T16:19:18.882Z,23.37
2017-10-18T16:21:47.130Z,21.13
2017-10-18T16:24:14.650Z,22.90
2017-10-18T16:26:42.123Z,23.97
2017-10-18T16:29:09.584Z,27.97
2017-10-18T16:31:37.068Z,24.73
2017-10-18T16:34:04.560Z,29.27
2017-10-18T16:36:32.030Z,31.40
2017-10-18T16:38:59.530Z,23.03
2017-10-18T16:41:26.997Z,26.97
2017-10-18T16:43:54.459Z,29.17
2017-10-18T16:46:21.936Z,25.50
2017-10-18T16:48:49.412Z,24.97
2017-10-18T16:51:16.893Z,26.20
2017-10-18T16:53:44.375Z,25.73
2017-10-18T16:56:11.892Z,22.83
2017-10-18T16:58:39.356Z,25.07
2017-10-18T17:01:06.823Z,21.50
2017-10-18T17:03:34.288Z,26.13
2017-10-18T17:06:01.760Z,24.57
2017-10-18T17:08:29.254Z,27.37
2017-10-18T17:10:57.481Z,23.30
2017-10-18T17:13:24.954Z,24.00
2017-10-18T17:15:52.420Z,23.27
2017-10-18T17:18:20.659Z,32.73
2017-10-18T17:20:48.151Z,24.50
2017-10-18T17:23:16.391Z,23.77
2017-10-18T17:25:43.863Z,29.67
2017-10-18T17:28:11.327Z,24.83
2017-10-18T17:30:38.808Z,30.37
2017-10-18T17:33:07.038Z,27.13
2017-10-18T17:35:34.490Z,23.40
2017-10-18T17:38:01.975Z,22.00
2017-10-18T17:40:29.438Z,24.03
2017-10-18T17:42:56.929Z,24.07
2017-10-18T17:45:24.494Z,27.73
2017-10-18T17:47:52.004Z,22.37
2017-10-18T17:50:19.468Z,23.77
2017-10-18T17:52:46.940Z,22.17
2017-10-18T17:55:15.185Z,29.47
2017-10-18T17:57:42.654Z,26.33
2017-10-18T18:00:10.892Z,32.60
2017-10-18T18:02:38.388Z,30.17
2017-10-18T18:05:06.652Z,23.43
2017-10-18T18:07:34.123Z,24.33
2017-10-18T18:10:02.383Z,25.43
2017-10-18T18:12:29.847Z,40.03
2017-10-18T18:14:58.077Z,41.67
2017-10-18T18:17:25.560Z,25.23
2017-10-18T18:19:53.041Z,28.40
2017-10-18T18:22:21.272Z,25.33
2017-10-18T18:24:48.768Z,25.77
2017-10-18T18:27:16.985Z,29.03
2017-10-18T18:29:44.484Z,23.33
2017-10-18T18:32:11.967Z,23.43
2017-10-18T18:34:40.198Z,51.70
2017-10-18T18:37:07.692Z,302.70
2017-10-18T18:39:35.151Z,79.77
2017-10-18T18:42:03.770Z,29.40
2017-10-18T18:44:31.243Z,35.17
2017-10-18T18:46:58.710Z,30.87
2017-10-18T18:49:26.203Z,26.90
2017-10-18T18:51:54.451Z,33.00
2017-10-18T18:54:23.455Z,26.00
2017-10-18T18:56:51.171Z,34.63
2017-10-18T18:59:18.646Z,24.90
2017-10-18T19:01:46.113Z,26.30
2017-10-18T19:04:13.579Z,25.80
2017-10-18T19:06:41.067Z,27.80
2017-10-18T19:09:09.300Z,23.70
2017-10-18T19:11:36.776Z,26.33
2017-10-18T19:14:04.312Z,24.77
2017-10-18T19:16:31.812Z,21.50
2017-10-18T19:19:00.055Z,24.30
2017-10-18T19:21:27.560Z,27.97
2017-10-18T19:23:55.040Z,29.83
2017-10-18T19:26:22.511Z,23.07
2017-10-18T19:28:50.011Z,25.43
2017-10-18T19:31:18.243Z,20.77
2017-10-18T19:33:45.727Z,28.63
2017-10-18T19:36:13.219Z,29.37
2017-10-18T19:38:40.675Z,27.60
2017-10-18T19:41:08.146Z,23.07
2017-10-18T19:43:35.628Z,22.27
2017-10-18T19:46:03.227Z,22.60
2017-10-18T19:48:30.701Z,29.40
2017-10-18T19:50:58.163Z,22.40
2017-10-18T19:53:25.642Z,24.57
2017-10-18T19:55:53.107Z,27.83
2017-10-18T19:58:20.579Z,24.07
2017-10-18T20:00:48.059Z,22.60
2017-10-18T20:03:16.295Z,20.40
2017-10-18T20:05:43.775Z,20.00
2017-10-18T20:08:11.244Z,27.83
2017-10-18T20:10:38.740Z,22.10
2017-10-18T20:13:06.201Z,22.83
2017-10-18T20:15:33.761Z,24.43
2017-10-18T20:18:01.251Z,24.33
2017-10-18T20:20:28.731Z,23.23
2017-10-18T20:22:56.787Z,28.80
2017-10-18T20:25:24.246Z,25.00
2017-10-18T20:27:52.532Z,28.23
2017-10-18T20:30:19.992Z,23.60
2017-10-18T20:32:47.480Z,29.87
2017-10-18T20:35:14.955Z,29.73
2017-10-18T20:37:42.430Z,25.20
2017-10-18T20:40:09.961Z,23.27
2017-10-18T20:42:37.435Z,25.33
2017-10-18T20:45:04.903Z,26.77
2017-10-18T20:47:32.373Z,21.03
2017-10-18T20:49:59.846Z,24.20
2017-10-18T20:52:28.115Z,25.17
2017-10-18T20:54:56.337Z,30.33
2017-10-18T20:57:23.812Z,26.50
2017-10-18T20:59:51.274Z,22.80
2017-10-18T21:02:18.756Z,26.00
2017-10-18T21:04:46.223Z,26.10
2017-10-18T21:07:14.492Z,28.77
2017-10-18T21:09:41.991Z,25.73
2017-10-18T21:12:09.466Z,25.97
2017-10-18T21:14:36.947Z,20.17
2017-10-18T21:17:04.422Z,26.17
2017-10-18T21:19:31.922Z,24.10
2017-10-18T21:21:59.379Z,23.40
2017-10-18T21:24:26.864Z,22.90
2017-10-18T21:26:54.334Z,29.13
2017-10-18T21:29:21.791Z,26.13
2017-10-18T21:31:49.266Z,22.50
2017-10-18T21:34:17.511Z,26.37
2017-10-18T21:36:44.991Z,22.40
2017-10-18T21:39:12.454Z,27.00
2017-10-18T21:41:40.691Z,27.70
2017-10-18T21:44:08.179Z,29.13
2017-10-18T21:46:35.644Z,31.30
2017-10-18T21:49:03.895Z,40.50
2017-10-18T21:51:31.363Z,25.73
2017-10-18T21:53:58.839Z,26.70
2017-10-18T21:56:27.063Z,29.60
2017-10-18T21:58:54.528Z,27.03
2017-10-18T22:01:22.168Z,26.00
2017-10-18T22:03:49.636Z,28.47
2017-10-18T22:06:17.778Z,32.97
2017-10-18T22:08:45.235Z,27.20
2017-10-18T22:11:12.702Z,23.47
2017-10-18T22:13:40.170Z,25.63
2017-10-18T22:16:07.655Z,28.27
2017-10-18T22:18:35.119Z,28.27
2017-10-18T22:21:02.571Z,27.30
2017-10-18T22:23:30.055Z,23.63
2017-10-18T22:25:58.289Z,28.63
2017-10-18T22:28:25.756Z,28.90
2017-10-18T22:30:53.246Z,23.67
2017-10-18T22:33:21.474Z,23.17
2017-10-18T22:35:48.945Z,27.97
2017-10-18T22:38:16.424Z,27.43
2017-10-18T22:40:44.659Z,27.50
2017-10-18T22:43:12.139Z,25.37
2017-10-18T22:45:39.598Z,22.23
2017-10-18T22:48:07.060Z,19.63
2017-10-18T22:50:35.316Z,21.77
2017-10-18T22:53:02.770Z,25.80
2017-10-18T22:55:30.252Z,25.43
2017-10-18T22:57:58.482Z,22.60
2017-10-18T23:00:25.963Z,26.07
2017-10-18T23:02:53.415Z,23.63
2017-10-18T23:05:20.896Z,23.93
2017-10-18T23:07:49.138Z,29.37
2017-10-18T23:10:16.607Z,30.83
2017-10-18T23:12:44.865Z,28.97
2017-10-18T23:15:12.354Z,17.87
2017-10-18T23:17:39.823Z,22.70
2017-10-18T23:20:08.064Z,24.43
2017-10-18T23:22:35.524Z,21.27
2017-10-18T23:25:03.770Z,21.97
2017-10-18T23:27:31.239Z,31.77
2017-10-18T23:29:58.698Z,27.13
2017-10-18T23:32:26.171Z,23.53
2017-10-18T23:34:53.627Z,23.87
2017-10-18T23:37:21.105Z,29.47
2017-10-18T23:39:49.348Z,27.53
2017-10-18T23:42:16.820Z,25.03
2017-10-18T23:44:44.297Z,24.67
2017-10-18T23:47:12.522Z,32.40
2017-10-18T23:49:39.984Z,25.13
2017-10-18T23:52:07.467Z,26.73
2017-10-18T23:54:34.939Z,27.20
2017-10-18T23:57:03.179Z,26.97
2017-10-18T23:59:30.662Z,25.00
